Погода Тсироаномандидина неделю

Антананариву, Мадагаскар

24 - 30 июля
  • 24июля
    Сегодня
    +12°
    +29°
    Практически безоблачно
    ВремяПогодаТемператураВлажностьДавлениеВетер, м/сВероятность осадков
    00:00Небольшая облачность+16°C49 %698 мм2.5 м/с5 %
    03:00Ясно и безоблачно+15°C85 %697 мм3.2 м/с5 %
    06:00Ясно и безоблачно+13°C88 %696 мм2.4 м/с5 %
    09:00Ясно и безоблачно+20°C61 %699 мм2.9 м/с5 %
    12:00Практически безоблачно+26°C37 %698 мм1.4 м/с5 %
    15:00Практически безоблачно+28°C31 %697 мм0.9 м/с5 %
    18:00Практически безоблачно+24°C37 %696 мм2.0 м/с5 %
    21:00Ясно и безоблачно+20°C53 %696 мм1.7 м/с5 %
  • 25июля
    Четверг
    +12°
    +28°
    Небольшая облачность
    ВремяПогодаТемператураВлажностьДавлениеВетер, м/сВероятность осадков
    00:00Практически безоблачно+17°C62 %696 мм1.5 м/с5 %
    03:00Небольшая облачность+15°C70 %694 мм0.5 м/с5 %
    06:00Практически безоблачно+12°C85 %694 мм1.2 м/с5 %
    09:00Ясно и безоблачно+20°C58 %697 мм0.7 м/с5 %
    12:00Небольшая облачность+26°C37 %697 мм1.5 м/с5 %
    15:00Небольшая облачность+28°C32 %695 мм2.0 м/с5 %
    18:00Практически безоблачно+24°C38 %695 мм2.5 м/с5 %
    21:00Ясно и безоблачно+20°C51 %695 мм1.8 м/с5 %
  • 26июля
    Пятница
    +11°
    +29°
    Ясно и безоблачно
    ВремяПогодаТемператураВлажностьДавлениеВетер, м/сВероятность осадков
    00:00Ясно и безоблачно+16°C61 %695 мм1.9 м/с5 %
    03:00Ясно и безоблачно+15°C71 %694 мм1.7 м/с5 %
    06:00Ясно и безоблачно+12°C84 %694 мм1.9 м/с5 %
    09:00Ясно и безоблачно+20°C53 %697 мм1.5 м/с5 %
    12:00Ясно и безоблачно+26°C34 %696 мм1.6 м/с5 %
    15:00Ясно и безоблачно+28°C30 %695 мм1.9 м/с5 %
    18:00Ясно и безоблачно+24°C36 %695 мм2.3 м/с5 %
    21:00Ясно и безоблачно+18°C44 %695 мм2.4 м/с5 %
  • 27июля
    Суббота
    +12°
    +29°
    Ясно и безоблачно
    ВремяПогодаТемператураВлажностьДавлениеВетер, м/сВероятность осадков
    00:00Ясно и безоблачно+15°C54 %694 мм2.0 м/с5 %
    03:00Ясно и безоблачно+13°C59 %693 мм1.7 м/с5 %
    06:00Ясно и безоблачно+12°C77 %694 мм1.5 м/с5 %
    09:00Ясно и безоблачно+20°C60 %697 мм1.4 м/с5 %
    12:00Ясно и безоблачно+27°C33 %697 мм1.7 м/с5 %
    15:00Ясно и безоблачно+29°C28 %695 мм1.7 м/с5 %
    18:00Ясно и безоблачно+23°C39 %695 мм1.6 м/с5 %
    21:00Ясно и безоблачно+20°C47 %695 мм1.6 м/с5 %
Мы используем cookies
Соглашаюсь